sensor_id;sensor_type;location;lat;lon;timestamp;temperature;humidity
30381;DHT22;17169;50.966;11.038;2023-06-14T00:01:16;17.20;71.40
30381;DHT22;17169;50.966;11.038;2023-06-14T00:04:18;17.20;71.40
30381;DHT22;17169;50.966;11.038;2023-06-14T00:07:34;17.20;71.80
30381;DHT22;17169;50.966;11.038;2023-06-14T00:10:38;17.10;72.00
30381;DHT22;17169;50.966;11.038;2023-06-14T00:13:42;17.00;72.30
30381;DHT22;17169;50.966;11.038;2023-06-14T00:16:45;16.90;72.50
30381;DHT22;17169;50.966;11.038;2023-06-14T00:19:47;16.90;72.70
30381;DHT22;17169;50.966;11.038;2023-06-14T00:22:49;16.80;73.10
30381;DHT22;17169;50.966;11.038;2023-06-14T00:25:54;16.80;73.10
30381;DHT22;17169;50.966;11.038;2023-06-14T00:28:56;16.70;73.30
30381;DHT22;17169;50.966;11.038;2023-06-14T00:31:59;16.70;73.40
30381;DHT22;17169;50.966;11.038;2023-06-14T00:35:01;16.70;73.80
30381;DHT22;17169;50.966;11.038;2023-06-14T00:38:03;16.60;74.00
30381;DHT22;17169;50.966;11.038;2023-06-14T00:41:07;16.50;74.30
30381;DHT22;17169;50.966;11.038;2023-06-14T00:44:09;16.50;74.40
30381;DHT22;17169;50.966;11.038;2023-06-14T00:47:12;16.40;74.50
30381;DHT22;17169;50.966;11.038;2023-06-14T00:50:14;16.40;75.00
30381;DHT22;17169;50.966;11.038;2023-06-14T00:53:17;16.30;74.80
30381;DHT22;17169;50.966;11.038;2023-06-14T00:56:21;16.30;74.90
30381;DHT22;17169;50.966;11.038;2023-06-14T00:59:24;16.30;74.90
30381;DHT22;17169;50.966;11.038;2023-06-14T01:02:27;16.20;75.20
30381;DHT22;17169;50.966;11.038;2023-06-14T01:05:30;16.20;75.50
30381;DHT22;17169;50.966;11.038;2023-06-14T01:08:42;16.10;75.60
30381;DHT22;17169;50.966;11.038;2023-06-14T01:11:54;16.10;75.70
30381;DHT22;17169;50.966;11.038;2023-06-14T01:15:01;16.10;75.80
30381;DHT22;17169;50.966;11.038;2023-06-14T01:18:04;16.00;76.00
30381;DHT22;17169;50.966;11.038;2023-06-14T01:21:20;16.00;76.10
30381;DHT22;17169;50.966;11.038;2023-06-14T01:24:23;16.00;76.30
30381;DHT22;17169;50.966;11.038;2023-06-14T01:27:32;15.90;76.30
30381;DHT22;17169;50.966;11.038;2023-06-14T01:30:35;15.90;76.50
30381;DHT22;17169;50.966;11.038;2023-06-14T01:33:38;15.90;76.70
30381;DHT22;17169;50.966;11.038;2023-06-14T01:36:42;15.80;76.80
30381;DHT22;17169;50.966;11.038;2023-06-14T01:39:48;15.80;77.10
30381;DHT22;17169;50.966;11.038;2023-06-14T01:42:52;15.70;77.10
30381;DHT22;17169;50.966;11.038;2023-06-14T01:45:54;15.70;77.30
30381;DHT22;17169;50.966;11.038;2023-06-14T01:48:57;15.70;77.50
30381;DHT22;17169;50.966;11.038;2023-06-14T01:52:00;15.70;77.80
30381;DHT22;17169;50.966;11.038;2023-06-14T01:55:05;15.60;78.00
30381;DHT22;17169;50.966;11.038;2023-06-14T01:58:09;15.60;78.10
30381;DHT22;17169;50.966;11.038;2023-06-14T02:01:12;15.60;78.20
30381;DHT22;17169;50.966;11.038;2023-06-14T02:04:17;15.50;78.40
30381;DHT22;17169;50.966;11.038;2023-06-14T02:07:19;15.50;78.50
30381;DHT22;17169;50.966;11.038;2023-06-14T02:10:23;15.40;78.80
30381;DHT22;17169;50.966;11.038;2023-06-14T02:13:25;15.40;79.10
30381;DHT22;17169;50.966;11.038;2023-06-14T02:16:27;15.30;79.30
30381;DHT22;17169;50.966;11.038;2023-06-14T02:19:30;15.30;79.40
30381;DHT22;17169;50.966;11.038;2023-06-14T02:22:32;15.30;79.80
30381;DHT22;17169;50.966;11.038;2023-06-14T02:25:36;15.20;80.00
30381;DHT22;17169;50.966;11.038;2023-06-14T02:28:40;15.20;80.30
30381;DHT22;17169;50.966;11.038;2023-06-14T02:31:42;15.10;80.50
30381;DHT22;17169;50.966;11.038;2023-06-14T02:34:44;15.10;80.90
30381;DHT22;17169;50.966;11.038;2023-06-14T02:37:50;15.00;81.10
30381;DHT22;17169;50.966;11.038;2023-06-14T02:40:54;14.90;81.20
30381;DHT22;17169;50.966;11.038;2023-06-14T02:43:57;14.90;81.50
30381;DHT22;17169;50.966;11.038;2023-06-14T02:46:59;14.90;81.90
30381;DHT22;17169;50.966;11.038;2023-06-14T02:50:03;14.80;82.00
30381;DHT22;17169;50.966;11.038;2023-06-14T02:53:05;14.80;82.20
30381;DHT22;17169;50.966;11.038;2023-06-14T02:56:09;14.70;82.50
30381;DHT22;17169;50.966;11.038;2023-06-14T02:59:12;14.70;82.80
30381;DHT22;17169;50.966;11.038;2023-06-14T03:02:16;14.70;83.00
30381;DHT22;17169;50.966;11.038;2023-06-14T03:05:18;14.70;83.30
30381;DHT22;17169;50.966;11.038;2023-06-14T03:08:22;14.60;83.30
30381;DHT22;17169;50.966;11.038;2023-06-14T03:11:29;14.60;83.50
30381;DHT22;17169;50.966;11.038;2023-06-14T03:14:32;14.60;83.60
30381;DHT22;17169;50.966;11.038;2023-06-14T03:17:35;14.50;83.90
30381;DHT22;17169;50.966;11.038;2023-06-14T03:20:39;14.50;84.20
30381;DHT22;17169;50.966;11.038;2023-06-14T03:23:43;14.40;84.50
30381;DHT22;17169;50.966;11.038;2023-06-14T03:26:47;14.40;84.60
30381;DHT22;17169;50.966;11.038;2023-06-14T03:29:49;14.40;84.80
30381;DHT22;17169;50.966;11.038;2023-06-14T03:32:52;14.40;84.90
30381;DHT22;17169;50.966;11.038;2023-06-14T03:35:56;14.40;85.00
30381;DHT22;17169;50.966;11.038;2023-06-14T03:38:58;14.40;85.10
30381;DHT22;17169;50.966;11.038;2023-06-14T03:42:02;14.40;85.30
30381;DHT22;17169;50.966;11.038;2023-06-14T03:45:06;14.40;85.60
30381;DHT22;17169;50.966;11.038;2023-06-14T03:48:09;14.40;86.00
30381;DHT22;17169;50.966;11.038;2023-06-14T03:51:12;14.40;86.10
30381;DHT22;17169;50.966;11.038;2023-06-14T03:54:14;14.50;86.30
30381;DHT22;17169;50.966;11.038;2023-06-14T03:57:18;14.40;86.40
30381;DHT22;17169;50.966;11.038;2023-06-14T04:00:21;14.40;86.40
30381;DHT22;17169;50.966;11.038;2023-06-14T04:03:23;14.70;86.70
30381;DHT22;17169;50.966;11.038;2023-06-14T04:06:26;14.90;86.00
30381;DHT22;17169;50.966;11.038;2023-06-14T04:09:33;15.00;85.50
30381;DHT22;17169;50.966;11.038;2023-06-14T04:12:36;15.00;85.30
30381;DHT22;17169;50.966;11.038;2023-06-14T04:15:39;15.00;85.30
30381;DHT22;17169;50.966;11.038;2023-06-14T04:18:43;14.90;85.40
30381;DHT22;17169;50.966;11.038;2023-06-14T04:21:45;14.90;85.40
30381;DHT22;17169;50.966;11.038;2023-06-14T04:24:47;14.90;85.50
30381;DHT22;17169;50.966;11.038;2023-06-14T04:27:51;14.90;85.60
30381;DHT22;17169;50.966;11.038;2023-06-14T04:30:54;14.90;85.60
30381;DHT22;17169;50.966;11.038;2023-06-14T04:33:57;14.90;85.80
30381;DHT22;17169;50.966;11.038;2023-06-14T04:37:00;15.00;86.10
30381;DHT22;17169;50.966;11.038;2023-06-14T04:40:02;15.20;85.70
30381;DHT22;17169;50.966;11.038;2023-06-14T04:43:09;15.30;85.30
30381;DHT22;17169;50.966;11.038;2023-06-14T04:46:13;15.30;85.40
30381;DHT22;17169;50.966;11.038;2023-06-14T04:49:16;15.30;85.40
30381;DHT22;17169;50.966;11.038;2023-06-14T04:52:18;15.30;85.60
30381;DHT22;17169;50.966;11.038;2023-06-14T04:55:21;15.40;85.70
30381;DHT22;17169;50.966;11.038;2023-06-14T04:58:25;15.40;86.00
30381;DHT22;17169;50.966;11.038;2023-06-14T05:01:28;15.40;85.80
30381;DHT22;17169;50.966;11.038;2023-06-14T05:04:30;15.40;85.80
30381;DHT22;17169;50.966;11.038;2023-06-14T05:07:33;15.50;85.90
30381;DHT22;17169;50.966;11.038;2023-06-14T05:10:35;15.50;85.60
30381;DHT22;17169;50.966;11.038;2023-06-14T05:13:39;15.60;85.50
30381;DHT22;17169;50.966;11.038;2023-06-14T05:16:43;15.60;85.60
30381;DHT22;17169;50.966;11.038;2023-06-14T05:19:45;15.60;85.30
30381;DHT22;17169;50.966;11.038;2023-06-14T05:22:48;15.60;85.60
30381;DHT22;17169;50.966;11.038;2023-06-14T05:25:51;15.70;85.50
30381;DHT22;17169;50.966;11.038;2023-06-14T05:28:55;15.70;85.60
30381;DHT22;17169;50.966;11.038;2023-06-14T05:31:58;15.70;86.00
30381;DHT22;17169;50.966;11.038;2023-06-14T05:35:00;15.80;86.00
30381;DHT22;17169;50.966;11.038;2023-06-14T05:38:03;15.90;86.30
30381;DHT22;17169;50.966;11.038;2023-06-14T05:41:05;16.00;85.50
30381;DHT22;17169;50.966;11.038;2023-06-14T05:44:09;16.10;85.60
30381;DHT22;17169;50.966;11.038;2023-06-14T05:47:11;16.30;85.40
30381;DHT22;17169;50.966;11.038;2023-06-14T05:50:14;16.30;85.00
30381;DHT22;17169;50.966;11.038;2023-06-14T05:53:16;16.40;84.70
30381;DHT22;17169;50.966;11.038;2023-06-14T05:56:19;16.50;84.50
30381;DHT22;17169;50.966;11.038;2023-06-14T05:59:22;16.60;84.10
30381;DHT22;17169;50.966;11.038;2023-06-14T06:02:25;16.60;84.10
30381;DHT22;17169;50.966;11.038;2023-06-14T06:05:27;16.70;84.50
30381;DHT22;17169;50.966;11.038;2023-06-14T06:08:29;16.70;84.00
30381;DHT22;17169;50.966;11.038;2023-06-14T06:11:32;16.80;83.70
30381;DHT22;17169;50.966;11.038;2023-06-14T06:14:36;16.80;83.60
30381;DHT22;17169;50.966;11.038;2023-06-14T06:17:38;16.90;84.10
30381;DHT22;17169;50.966;11.038;2023-06-14T06:20:41;17.10;83.90
30381;DHT22;17169;50.966;11.038;2023-06-14T06:23:43;17.20;83.70
30381;DHT22;17169;50.966;11.038;2023-06-14T06:26:45;17.30;83.30
30381;DHT22;17169;50.966;11.038;2023-06-14T06:29:49;17.40;83.00
30381;DHT22;17169;50.966;11.038;2023-06-14T06:32:52;17.40;83.00
30381;DHT22;17169;50.966;11.038;2023-06-14T06:35:56;17.40;83.00
30381;DHT22;17169;50.966;11.038;2023-06-14T06:38:59;17.50;83.10
30381;DHT22;17169;50.966;11.038;2023-06-14T06:42:01;17.60;82.70
30381;DHT22;17169;50.966;11.038;2023-06-14T06:45:06;17.70;82.70
30381;DHT22;17169;50.966;11.038;2023-06-14T06:56:04;17.90;82.00
30381;DHT22;17169;50.966;11.038;2023-06-14T06:59:06;18.10;82.10
30381;DHT22;17169;50.966;11.038;2023-06-14T07:02:10;18.20;81.80
30381;DHT22;17169;50.966;11.038;2023-06-14T07:05:12;18.20;81.50
30381;DHT22;17169;50.966;11.038;2023-06-14T07:08:15;18.30;81.50
30381;DHT22;17169;50.966;11.038;2023-06-14T07:11:17;18.30;81.10
30381;DHT22;17169;50.966;11.038;2023-06-14T07:14:19;18.40;81.40
30381;DHT22;17169;50.966;11.038;2023-06-14T07:17:25;18.50;81.20
30381;DHT22;17169;50.966;11.038;2023-06-14T07:20:27;18.60;80.90
30381;DHT22;17169;50.966;11.038;2023-06-14T07:23:30;18.70;80.60
30381;DHT22;17169;50.966;11.038;2023-06-14T07:26:32;18.80;80.20
30381;DHT22;17169;50.966;11.038;2023-06-14T07:29:34;18.90;80.00
30381;DHT22;17169;50.966;11.038;2023-06-14T07:32:38;19.00;79.90
30381;DHT22;17169;50.966;11.038;2023-06-14T07:35:40;19.10;79.10
30381;DHT22;17169;50.966;11.038;2023-06-14T07:38:43;19.20;78.70
30381;DHT22;17169;50.966;11.038;2023-06-14T07:41:46;19.20;78.80
30381;DHT22;17169;50.966;11.038;2023-06-14T07:44:48;19.30;78.20
30381;DHT22;17169;50.966;11.038;2023-06-14T07:47:53;19.40;78.20
30381;DHT22;17169;50.966;11.038;2023-06-14T07:50:56;19.30;77.80
30381;DHT22;17169;50.966;11.038;2023-06-14T07:53:59;19.50;77.60
30381;DHT22;17169;50.966;11.038;2023-06-14T07:57:03;19.50;77.40
30381;DHT22;17169;50.966;11.038;2023-06-14T08:00:06;19.60;77.50
30381;DHT22;17169;50.966;11.038;2023-06-14T08:03:10;19.50;77.20
30381;DHT22;17169;50.966;11.038;2023-06-14T08:06:13;19.70;77.50
30381;DHT22;17169;50.966;11.038;2023-06-14T08:09:15;19.80;76.40
30381;DHT22;17169;50.966;11.038;2023-06-14T08:12:17;19.90;76.80
30381;DHT22;17169;50.966;11.038;2023-06-14T08:15:20;19.90;76.10
30381;DHT22;17169;50.966;11.038;2023-06-14T08:18:23;19.80;75.90
30381;DHT22;17169;50.966;11.038;2023-06-14T08:21:26;19.80;75.90
30381;DHT22;17169;50.966;11.038;2023-06-14T08:24:30;19.80;75.20
30381;DHT22;17169;50.966;11.038;2023-06-14T08:27:32;20.00;75.40
30381;DHT22;17169;50.966;11.038;2023-06-14T08:30:34;20.10;75.90
30381;DHT22;17169;50.966;11.038;2023-06-14T08:33:38;20.30;75.80
30381;DHT22;17169;50.966;11.038;2023-06-14T08:36:44;20.40;75.20
30381;DHT22;17169;50.966;11.038;2023-06-14T08:39:46;20.60;74.30
30381;DHT22;17169;50.966;11.038;2023-06-14T08:42:51;20.70;74.00
30381;DHT22;17169;50.966;11.038;2023-06-14T08:45:58;20.70;73.40
30381;DHT22;17169;50.966;11.038;2023-06-14T08:49:04;20.80;73.30
30381;DHT22;17169;50.966;11.038;2023-06-14T08:52:07;20.90;73.00
30381;DHT22;17169;50.966;11.038;2023-06-14T08:55:11;21.00;72.70
30381;DHT22;17169;50.966;11.038;2023-06-14T08:58:15;21.00;72.00
30381;DHT22;17169;50.966;11.038;2023-06-14T09:01:18;21.10;72.30
30381;DHT22;17169;50.966;11.038;2023-06-14T09:04:24;21.10;70.30
30381;DHT22;17169;50.966;11.038;2023-06-14T09:07:30;21.10;70.40
30381;DHT22;17169;50.966;11.038;2023-06-14T09:10:33;21.10;70.10
30381;DHT22;17169;50.966;11.038;2023-06-14T09:13:38;21.10;70.40
30381;DHT22;17169;50.966;11.038;2023-06-14T09:16:40;21.20;70.30
30381;DHT22;17169;50.966;11.038;2023-06-14T09:19:45;21.20;70.10
30381;DHT22;17169;50.966;11.038;2023-06-14T09:22:47;21.20;70.40
30381;DHT22;17169;50.966;11.038;2023-06-14T09:25:50;21.30;70.00
30381;DHT22;17169;50.966;11.038;2023-06-14T09:28:53;21.30;69.90
30381;DHT22;17169;50.966;11.038;2023-06-14T09:31:56;21.30;69.50
30381;DHT22;17169;50.966;11.038;2023-06-14T09:35:00;21.30;69.70
30381;DHT22;17169;50.966;11.038;2023-06-14T09:38:02;21.40;70.00
30381;DHT22;17169;50.966;11.038;2023-06-14T09:41:04;21.60;70.10
30381;DHT22;17169;50.966;11.038;2023-06-14T09:44:08;21.90;70.00
30381;DHT22;17169;50.966;11.038;2023-06-14T09:47:11;22.00;68.80
30381;DHT22;17169;50.966;11.038;2023-06-14T09:50:15;22.20;68.50
30381;DHT22;17169;50.966;11.038;2023-06-14T09:53:20;22.40;67.60
30381;DHT22;17169;50.966;11.038;2023-06-14T09:56:27;22.60;67.00
30381;DHT22;17169;50.966;11.038;2023-06-14T09:59:31;22.60;67.00
30381;DHT22;17169;50.966;11.038;2023-06-14T10:02:36;22.70;65.70
30381;DHT22;17169;50.966;11.038;2023-06-14T10:05:43;22.60;66.00
30381;DHT22;17169;50.966;11.038;2023-06-14T10:08:47;22.70;66.40
30381;DHT22;17169;50.966;11.038;2023-06-14T10:11:50;22.90;66.60
30381;DHT22;17169;50.966;11.038;2023-06-14T10:14:53;22.90;64.70
30381;DHT22;17169;50.966;11.038;2023-06-14T10:18:00;22.70;64.40
30381;DHT22;17169;50.966;11.038;2023-06-14T10:21:14;22.70;65.20
30381;DHT22;17169;50.966;11.038;2023-06-14T10:24:18;22.90;64.50
30381;DHT22;17169;50.966;11.038;2023-06-14T10:27:22;22.90;63.80
30381;DHT22;17169;50.966;11.038;2023-06-14T10:30:26;22.90;63.90
30381;DHT22;17169;50.966;11.038;2023-06-14T10:33:28;23.10;64.60
30381;DHT22;17169;50.966;11.038;2023-06-14T10:36:32;23.40;63.70
30381;DHT22;17169;50.966;11.038;2023-06-14T10:39:39;23.50;63.60
30381;DHT22;17169;50.966;11.038;2023-06-14T10:42:51;23.60;62.00
30381;DHT22;17169;50.966;11.038;2023-06-14T10:46:13;23.60;62.10
30381;DHT22;17169;50.966;11.038;2023-06-14T10:49:16;23.50;62.30
30381;DHT22;17169;50.966;11.038;2023-06-14T10:52:28;23.40;62.10
30381;DHT22;17169;50.966;11.038;2023-06-14T10:55:35;23.10;61.60
30381;DHT22;17169;50.966;11.038;2023-06-14T10:58:38;23.20;62.20
30381;DHT22;17169;50.966;11.038;2023-06-14T11:01:51;23.40;62.60
30381;DHT22;17169;50.966;11.038;2023-06-14T11:04:59;23.70;62.20
30381;DHT22;17169;50.966;11.038;2023-06-14T11:08:26;23.60;60.40
30381;DHT22;17169;50.966;11.038;2023-06-14T11:11:32;23.70;60.90
30381;DHT22;17169;50.966;11.038;2023-06-14T11:14:35;23.70;60.50
30381;DHT22;17169;50.966;11.038;2023-06-14T11:17:37;23.60;60.20
30381;DHT22;17169;50.966;11.038;2023-06-14T11:20:40;23.80;60.50
30381;DHT22;17169;50.966;11.038;2023-06-14T11:23:49;24.20;60.40
30381;DHT22;17169;50.966;11.038;2023-06-14T11:26:51;24.40;59.40
30381;DHT22;17169;50.966;11.038;2023-06-14T11:29:53;24.70;58.70
30381;DHT22;17169;50.966;11.038;2023-06-14T11:32:56;24.90;58.30
30381;DHT22;17169;50.966;11.038;2023-06-14T11:36:01;25.00;56.40
30381;DHT22;17169;50.966;11.038;2023-06-14T11:39:06;25.10;56.40
30381;DHT22;17169;50.966;11.038;2023-06-14T11:42:13;25.10;55.50
30381;DHT22;17169;50.966;11.038;2023-06-14T11:45:16;25.30;56.50
30381;DHT22;17169;50.966;11.038;2023-06-14T11:48:18;25.60;56.10
30381;DHT22;17169;50.966;11.038;2023-06-14T11:51:21;25.60;55.50
30381;DHT22;17169;50.966;11.038;2023-06-14T11:54:24;25.70;55.30
30381;DHT22;17169;50.966;11.038;2023-06-14T11:57:27;25.90;56.10
30381;DHT22;17169;50.966;11.038;2023-06-14T12:00:29;26.20;55.40
30381;DHT22;17169;50.966;11.038;2023-06-14T12:03:32;26.30;54.70
30381;DHT22;17169;50.966;11.038;2023-06-14T12:06:34;26.60;55.20
30381;DHT22;17169;50.966;11.038;2023-06-14T12:09:41;26.60;55.70
30381;DHT22;17169;50.966;11.038;2023-06-14T12:12:45;26.50;54.80
30381;DHT22;17169;50.966;11.038;2023-06-14T12:15:54;26.40;54.40
30381;DHT22;17169;50.966;11.038;2023-06-14T12:19:00;26.40;53.90
30381;DHT22;17169;50.966;11.038;2023-06-14T12:22:04;26.60;53.90
30381;DHT22;17169;50.966;11.038;2023-06-14T12:25:08;26.60;54.20
30381;DHT22;17169;50.966;11.038;2023-06-14T12:28:13;26.30;53.20
30381;DHT22;17169;50.966;11.038;2023-06-14T12:31:16;26.20;53.90
30381;DHT22;17169;50.966;11.038;2023-06-14T12:34:20;26.40;53.50
30381;DHT22;17169;50.966;11.038;2023-06-14T12:37:22;26.40;53.40
30381;DHT22;17169;50.966;11.038;2023-06-14T12:40:26;26.60;53.90
30381;DHT22;17169;50.966;11.038;2023-06-14T12:43:28;27.00;53.20
30381;DHT22;17169;50.966;11.038;2023-06-14T12:46:31;27.40;53.10
30381;DHT22;17169;50.966;11.038;2023-06-14T12:49:33;27.60;51.90
30381;DHT22;17169;50.966;11.038;2023-06-14T12:52:35;27.40;51.60
30381;DHT22;17169;50.966;11.038;2023-06-14T12:55:39;27.20;52.20
30381;DHT22;17169;50.966;11.038;2023-06-14T12:58:42;27.00;52.20
30381;DHT22;17169;50.966;11.038;2023-06-14T13:01:44;27.00;53.40
30381;DHT22;17169;50.966;11.038;2023-06-14T13:04:48;27.40;53.30
30381;DHT22;17169;50.966;11.038;2023-06-14T13:07:51;27.60;52.30
30381;DHT22;17169;50.966;11.038;2023-06-14T13:10:54;27.80;53.00
30381;DHT22;17169;50.966;11.038;2023-06-14T13:13:57;28.10;52.00
30381;DHT22;17169;50.966;11.038;2023-06-14T13:16:59;28.10;50.80
30381;DHT22;17169;50.966;11.038;2023-06-14T13:20:01;28.00;51.00
30381;DHT22;17169;50.966;11.038;2023-06-14T13:23:04;27.90;51.60
30381;DHT22;17169;50.966;11.038;2023-06-14T13:26:09;28.10;52.00
30381;DHT22;17169;50.966;11.038;2023-06-14T13:29:13;28.60;50.90
30381;DHT22;17169;50.966;11.038;2023-06-14T13:32:15;28.90;50.80
30381;DHT22;17169;50.966;11.038;2023-06-14T13:35:17;29.40;50.90
30381;DHT22;17169;50.966;11.038;2023-06-14T13:38:20;29.30;50.10
30381;DHT22;17169;50.966;11.038;2023-06-14T13:41:25;28.90;50.20
30381;DHT22;17169;50.966;11.038;2023-06-14T13:44:32;28.80;51.10
30381;DHT22;17169;50.966;11.038;2023-06-14T13:47:34;28.90;51.50
30381;DHT22;17169;50.966;11.038;2023-06-14T13:50:37;29.30;50.60
30381;DHT22;17169;50.966;11.038;2023-06-14T13:53:39;29.80;50.30
30381;DHT22;17169;50.966;11.038;2023-06-14T13:56:43;30.70;49.60
30381;DHT22;17169;50.966;11.038;2023-06-14T13:59:45;32.00;48.60
30381;DHT22;17169;50.966;11.038;2023-06-14T14:02:48;33.70;47.30
30381;DHT22;17169;50.966;11.038;2023-06-14T14:05:51;35.40;45.80
30381;DHT22;17169;50.966;11.038;2023-06-14T14:08:54;37.10;43.80
30381;DHT22;17169;50.966;11.038;2023-06-14T14:11:58;38.20;42.40
30381;DHT22;17169;50.966;11.038;2023-06-14T14:15:00;39.80;41.30
30381;DHT22;17169;50.966;11.038;2023-06-14T14:18:02;38.90;39.20
30381;DHT22;17169;50.966;11.038;2023-06-14T14:21:06;37.40;39.50
30381;DHT22;17169;50.966;11.038;2023-06-14T14:24:08;37.20;40.80
30381;DHT22;17169;50.966;11.038;2023-06-14T14:27:12;37.80;40.60
30381;DHT22;17169;50.966;11.038;2023-06-14T14:30:14;39.10;39.90
30381;DHT22;17169;50.966;11.038;2023-06-14T14:33:18;40.40;39.80
30381;DHT22;17169;50.966;11.038;2023-06-14T14:36:20;41.60;38.80
30381;DHT22;17169;50.966;11.038;2023-06-14T14:39:22;41.00;37.60
30381;DHT22;17169;50.966;11.038;2023-06-14T14:42:26;39.50;37.70
30381;DHT22;17169;50.966;11.038;2023-06-14T14:45:29;37.90;38.10
30381;DHT22;17169;50.966;11.038;2023-06-14T14:48:31;36.90;39.40
30381;DHT22;17169;50.966;11.038;2023-06-14T14:51:33;35.60;39.50
30381;DHT22;17169;50.966;11.038;2023-06-14T14:54:36;37.20;40.40
30381;DHT22;17169;50.966;11.038;2023-06-14T14:57:39;39.00;39.90
30381;DHT22;17169;50.966;11.038;2023-06-14T15:00:42;39.60;38.30
30381;DHT22;17169;50.966;11.038;2023-06-14T15:03:44;38.00;38.10
30381;DHT22;17169;50.966;11.038;2023-06-14T15:06:47;36.40;38.90
30381;DHT22;17169;50.966;11.038;2023-06-14T15:09:49;35.00;40.10
30381;DHT22;17169;50.966;11.038;2023-06-14T15:12:53;36.20;41.20
30381;DHT22;17169;50.966;11.038;2023-06-14T15:15:56;38.00;40.70
30381;DHT22;17169;50.966;11.038;2023-06-14T15:18:58;39.90;38.90
30381;DHT22;17169;50.966;11.038;2023-06-14T15:22:00;41.70;37.80
30381;DHT22;17169;50.966;11.038;2023-06-14T15:25:03;43.30;36.90
30381;DHT22;17169;50.966;11.038;2023-06-14T15:28:07;44.60;36.30
30381;DHT22;17169;50.966;11.038;2023-06-14T15:31:10;45.80;35.30
30381;DHT22;17169;50.966;11.038;2023-06-14T15:34:13;46.70;34.80
30381;DHT22;17169;50.966;11.038;2023-06-14T15:37:15;47.50;33.80
30381;DHT22;17169;50.966;11.038;2023-06-14T15:40:17;48.40;33.30
30381;DHT22;17169;50.966;11.038;2023-06-14T15:43:21;49.00;32.50
30381;DHT22;17169;50.966;11.038;2023-06-14T15:46:24;48.50;31.80
30381;DHT22;17169;50.966;11.038;2023-06-14T15:49:27;45.40;31.70
30381;DHT22;17169;50.966;11.038;2023-06-14T15:52:29;42.40;33.60
30381;DHT22;17169;50.966;11.038;2023-06-14T15:55:31;39.80;35.40
30381;DHT22;17169;50.966;11.038;2023-06-14T15:58:35;37.70;36.80
30381;DHT22;17169;50.966;11.038;2023-06-14T16:01:37;35.70;38.30
30381;DHT22;17169;50.966;11.038;2023-06-14T16:04:40;34.20;40.00
30381;DHT22;17169;50.966;11.038;2023-06-14T16:07:42;35.90;41.10
30381;DHT22;17169;50.966;11.038;2023-06-14T16:10:45;38.30;40.10
30381;DHT22;17169;50.966;11.038;2023-06-14T16:13:48;40.30;38.80
30381;DHT22;17169;50.966;11.038;2023-06-14T16:16:51;42.20;37.40
30381;DHT22;17169;50.966;11.038;2023-06-14T16:19:53;43.20;36.90
30381;DHT22;17169;50.966;11.038;2023-06-14T16:22:56;44.30;36.40
30381;DHT22;17169;50.966;11.038;2023-06-14T16:25:58;45.30;35.80
30381;DHT22;17169;50.966;11.038;2023-06-14T16:29:02;46.20;35.30
30381;DHT22;17169;50.966;11.038;2023-06-14T16:32:04;47.00;34.70
30381;DHT22;17169;50.966;11.038;2023-06-14T16:35:07;47.40;34.50
30381;DHT22;17169;50.966;11.038;2023-06-14T16:38:09;47.90;34.30
30381;DHT22;17169;50.966;11.038;2023-06-14T16:41:12;48.30;33.90
30381;DHT22;17169;50.966;11.038;2023-06-14T16:44:16;48.70;33.60
30381;DHT22;17169;50.966;11.038;2023-06-14T16:47:19;48.70;33.10
30381;DHT22;17169;50.966;11.038;2023-06-14T16:50:22;47.80;33.30
30381;DHT22;17169;50.966;11.038;2023-06-14T16:53:24;46.80;33.60
30381;DHT22;17169;50.966;11.038;2023-06-14T16:56:27;47.10;33.90
30381;DHT22;17169;50.966;11.038;2023-06-14T16:59:30;47.70;33.90
30381;DHT22;17169;50.966;11.038;2023-06-14T17:02:33;48.10;33.40
30381;DHT22;17169;50.966;11.038;2023-06-14T17:05:35;48.10;33.00
30381;DHT22;17169;50.966;11.038;2023-06-14T17:08:37;48.30;33.00
30381;DHT22;17169;50.966;11.038;2023-06-14T17:11:40;48.50;32.90
30381;DHT22;17169;50.966;11.038;2023-06-14T17:14:43;48.20;32.70
30381;DHT22;17169;50.966;11.038;2023-06-14T17:17:46;45.60;32.60
30381;DHT22;17169;50.966;11.038;2023-06-14T17:20:48;42.80;33.70
30381;DHT22;17169;50.966;11.038;2023-06-14T17:23:50;40.20;35.10
30381;DHT22;17169;50.966;11.038;2023-06-14T17:26:54;37.90;36.50
30381;DHT22;17169;50.966;11.038;2023-06-14T17:29:59;36.00;38.10
30381;DHT22;17169;50.966;11.038;2023-06-14T17:33:01;34.20;39.30
30381;DHT22;17169;50.966;11.038;2023-06-14T17:36:05;32.80;40.80
30381;DHT22;17169;50.966;11.038;2023-06-14T17:39:08;31.90;42.20
30381;DHT22;17169;50.966;11.038;2023-06-14T17:42:10;31.10;43.40
30381;DHT22;17169;50.966;11.038;2023-06-14T17:45:14;30.30;44.40
30381;DHT22;17169;50.966;11.038;2023-06-14T17:48:17;29.40;45.40
30381;DHT22;17169;50.966;11.038;2023-06-14T17:51:19;28.70;46.60
30381;DHT22;17169;50.966;11.038;2023-06-14T17:54:21;28.00;48.00
30381;DHT22;17169;50.966;11.038;2023-06-14T17:57:24;27.60;48.60
30381;DHT22;17169;50.966;11.038;2023-06-14T18:00:28;27.40;49.00
30381;DHT22;17169;50.966;11.038;2023-06-14T18:03:30;26.80;50.10
30381;DHT22;17169;50.966;11.038;2023-06-14T18:06:32;26.40;50.90
30381;DHT22;17169;50.966;11.038;2023-06-14T18:09:35;26.00;51.70
30381;DHT22;17169;50.966;11.038;2023-06-14T18:12:37;25.50;52.60
30381;DHT22;17169;50.966;11.038;2023-06-14T18:15:41;25.20;52.90
30381;DHT22;17169;50.966;11.038;2023-06-14T18:18:43;24.80;53.50
30381;DHT22;17169;50.966;11.038;2023-06-14T18:21:47;24.50;54.20
30381;DHT22;17169;50.966;11.038;2023-06-14T18:24:49;24.20;54.80
30381;DHT22;17169;50.966;11.038;2023-06-14T18:27:52;24.00;55.30
30381;DHT22;17169;50.966;11.038;2023-06-14T18:30:55;23.70;55.80
30381;DHT22;17169;50.966;11.038;2023-06-14T18:33:59;23.50;56.10
30381;DHT22;17169;50.966;11.038;2023-06-14T18:37:02;23.30;56.80
30381;DHT22;17169;50.966;11.038;2023-06-14T18:40:05;23.20;57.10
30381;DHT22;17169;50.966;11.038;2023-06-14T18:43:08;23.00;57.80
30381;DHT22;17169;50.966;11.038;2023-06-14T18:46:14;22.90;58.40
30381;DHT22;17169;50.966;11.038;2023-06-14T18:49:16;22.70;59.10
30381;DHT22;17169;50.966;11.038;2023-06-14T18:52:18;22.60;59.30
30381;DHT22;17169;50.966;11.038;2023-06-14T18:55:21;22.40;60.20
30381;DHT22;17169;50.966;11.038;2023-06-14T18:58:24;22.20;60.50
30381;DHT22;17169;50.966;11.038;2023-06-14T19:01:27;22.20;60.60
30381;DHT22;17169;50.966;11.038;2023-06-14T19:04:30;22.00;61.10
30381;DHT22;17169;50.966;11.038;2023-06-14T19:07:33;21.90;61.50